sensor_id;sensor_type;location;lat;lon;timestamp;pressure;altitude;pressure_sealevel;temperature;humidity
57600;BME280;43426;43.594;24.334;2023-03-25T00:00:55;100701.72;;;5.86;100.00
57600;BME280;43426;43.594;24.334;2023-03-25T00:03:25;100698.03;;;5.96;100.00
57600;BME280;43426;43.594;24.334;2023-03-25T00:05:56;100690.00;;;6.06;100.00
57600;BME280;43426;43.594;24.334;2023-03-25T00:08:22;100700.59;;;5.98;100.00
57600;BME280;43426;43.594;24.334;2023-03-25T00:10:59;100701.59;;;5.77;100.00
57600;BME280;43426;43.594;24.334;2023-03-25T00:13:26;100676.47;;;5.69;100.00
57600;BME280;43426;43.594;24.334;2023-03-25T00:15:52;100698.75;;;5.79;100.00
57600;BME280;43426;43.594;24.334;2023-03-25T00:18:19;100701.84;;;5.74;100.00
57600;BME280;43426;43.594;24.334;2023-03-25T00:20:50;100673.94;;;5.48;100.00
57600;BME280;43426;43.594;24.334;2023-03-25T00:23:17;100667.75;;;5.47;100.00
57600;BME280;43426;43.594;24.334;2023-03-25T00:25:43;100661.69;;;5.45;100.00
57600;BME280;43426;43.594;24.334;2023-03-25T00:28:13;100675.78;;;5.67;100.00
57600;BME280;43426;43.594;24.334;2023-03-25T00:30:40;100680.84;;;5.60;100.00
57600;BME280;43426;43.594;24.334;2023-03-25T00:33:06;100690.44;;;5.62;100.00
57600;BME280;43426;43.594;24.334;2023-03-25T00:35:36;100691.84;;;5.67;100.00
57600;BME280;43426;43.594;24.334;2023-03-25T00:38:02;100674.81;;;5.68;100.00
57600;BME280;43426;43.594;24.334;2023-03-25T00:40:30;100666.91;;;5.56;100.00
57600;BME280;43426;43.594;24.334;2023-03-25T00:42:59;100669.56;;;5.56;100.00
57600;BME280;43426;43.594;24.334;2023-03-25T00:45:25;100595.22;;;5.11;100.00
57600;BME280;43426;43.594;24.334;2023-03-25T00:47:51;100652.69;;;5.56;100.00
57600;BME280;43426;43.594;24.334;2023-03-25T00:50:16;100666.50;;;5.61;100.00
57600;BME280;43426;43.594;24.334;2023-03-25T00:52:42;100662.56;;;5.65;100.00
57600;BME280;43426;43.594;24.334;2023-03-25T00:55:08;100637.88;;;5.61;99.03
57600;BME280;43426;43.594;24.334;2023-03-25T00:57:33;100659.72;;;5.47;98.54
57600;BME280;43426;43.594;24.334;2023-03-25T00:59:59;100625.19;;;5.15;98.89
57600;BME280;43426;43.594;24.334;2023-03-25T01:02:25;100655.63;;;5.23;99.57
57600;BME280;43426;43.594;24.334;2023-03-25T01:04:50;100648.69;;;5.11;100.00
57600;BME280;43426;43.594;24.334;2023-03-25T01:07:17;100642.78;;;5.17;100.00
57600;BME280;43426;43.594;24.334;2023-03-25T01:09:45;100645.59;;;5.16;100.00
57600;BME280;43426;43.594;24.334;2023-03-25T01:12:12;100616.53;;;4.91;100.00
57600;BME280;43426;43.594;24.334;2023-03-25T01:14:38;100644.59;;;4.97;100.00
57600;BME280;43426;43.594;24.334;2023-03-25T01:17:03;100633.97;;;4.86;100.00
57600;BME280;43426;43.594;24.334;2023-03-25T01:19:29;100638.78;;;4.82;100.00
57600;BME280;43426;43.594;24.334;2023-03-25T01:21:54;100578.19;;;4.52;100.00
57600;BME280;43426;43.594;24.334;2023-03-25T01:24:20;100617.38;;;4.72;100.00
57600;BME280;43426;43.594;24.334;2023-03-25T01:26:45;100632.00;;;4.78;100.00
57600;BME280;43426;43.594;24.334;2023-03-25T01:29:16;100635.41;;;4.90;100.00
57600;BME280;43426;43.594;24.334;2023-03-25T01:31:42;100625.16;;;4.95;100.00
57600;BME280;43426;43.594;24.334;2023-03-25T01:34:08;100623.06;;;4.99;100.00
57600;BME280;43426;43.594;24.334;2023-03-25T01:36:34;100620.38;;;4.89;100.00
57600;BME280;43426;43.594;24.334;2023-03-25T01:39:04;100599.50;;;4.73;100.00
57600;BME280;43426;43.594;24.334;2023-03-25T01:41:32;100608.72;;;4.59;100.00
57600;BME280;43426;43.594;24.334;2023-03-25T01:44:08;100609.84;;;4.56;100.00
57600;BME280;43426;43.594;24.334;2023-03-25T01:46:34;100564.56;;;4.14;100.00
57600;BME280;43426;43.594;24.334;2023-03-25T01:49:03;100601.31;;;4.32;100.00
57600;BME280;43426;43.594;24.334;2023-03-25T01:51:34;100605.56;;;4.44;100.00
57600;BME280;43426;43.594;24.334;2023-03-25T01:54:00;100592.03;;;4.36;100.00
57600;BME280;43426;43.594;24.334;2023-03-25T01:56:30;100592.03;;;4.36;100.00
57600;BME280;43426;43.594;24.334;2023-03-25T01:59:02;100593.97;;;4.65;100.00
57600;BME280;43426;43.594;24.334;2023-03-25T02:01:30;100536.50;;;4.30;100.00
57600;BME280;43426;43.594;24.334;2023-03-25T02:03:57;100585.34;;;4.51;100.00
57600;BME280;43426;43.594;24.334;2023-03-25T02:06:33;100594.81;;;4.65;100.00
57600;BME280;43426;43.594;24.334;2023-03-25T02:09:02;100575.97;;;4.57;100.00
57600;BME280;43426;43.594;24.334;2023-03-25T02:11:31;100597.47;;;4.55;100.00
57600;BME280;43426;43.594;24.334;2023-03-25T02:13:59;100582.69;;;4.51;100.00
57600;BME280;43426;43.594;24.334;2023-03-25T02:21:55;100595.09;;;4.21;100.00
57600;BME280;43426;43.594;24.334;2023-03-25T02:41:24;100604.84;;;4.11;100.00
57600;BME280;43426;43.594;24.334;2023-03-25T02:46:20;100603.13;;;3.79;100.00
57600;BME280;43426;43.594;24.334;2023-03-25T02:49:13;100599.28;;;3.72;100.00
57600;BME280;43426;43.594;24.334;2023-03-25T02:52:12;100606.91;;;3.77;100.00
57600;BME280;43426;43.594;24.334;2023-03-25T02:54:40;100601.31;;;3.80;100.00
57600;BME280;43426;43.594;24.334;2023-03-25T02:57:11;100604.50;;;3.95;100.00
57600;BME280;43426;43.594;24.334;2023-03-25T02:59:39;100594.47;;;3.87;100.00
57600;BME280;43426;43.594;24.334;2023-03-25T03:02:09;100575.41;;;3.70;100.00
57600;BME280;43426;43.594;24.334;2023-03-25T03:04:50;100572.28;;;3.65;100.00
57600;BME280;43426;43.594;24.334;2023-03-25T03:07:28;100599.75;;;3.77;100.00
57600;BME280;43426;43.594;24.334;2023-03-25T03:21:22;100558.38;;;3.62;100.00
57600;BME280;43426;43.594;24.334;2023-03-25T03:26:47;100588.31;;;3.86;100.00
57600;BME280;43426;43.594;24.334;2023-03-25T03:29:39;100555.03;;;3.69;100.00
57600;BME280;43426;43.594;24.334;2023-03-25T03:32:12;100571.84;;;3.81;100.00
57600;BME280;43426;43.594;24.334;2023-03-25T03:34:52;100575.75;;;3.77;100.00
57600;BME280;43426;43.594;24.334;2023-03-25T03:37:26;100581.44;;;3.51;100.00
57600;BME280;43426;43.594;24.334;2023-03-25T03:39:54;100601.63;;;3.44;100.00
57600;BME280;43426;43.594;24.334;2023-03-25T03:42:29;100605.25;;;3.43;100.00
57600;BME280;43426;43.594;24.334;2023-03-25T03:45:01;100591.47;;;3.38;100.00
57600;BME280;43426;43.594;24.334;2023-03-25T03:47:31;100598.31;;;3.52;100.00
57600;BME280;43426;43.594;24.334;2023-03-25T03:50:04;100621.31;;;3.64;100.00
57600;BME280;43426;43.594;24.334;2023-03-25T03:52:37;100596.41;;;3.43;100.00
57600;BME280;43426;43.594;24.334;2023-03-25T03:55:07;100629.25;;;3.43;100.00
57600;BME280;43426;43.594;24.334;2023-03-25T03:57:44;100617.19;;;3.28;100.00
57600;BME280;43426;43.594;24.334;2023-03-25T04:03:01;100634.16;;;3.38;100.00
57600;BME280;43426;43.594;24.334;2023-03-25T04:05:26;100614.06;;;3.22;100.00
57600;BME280;43426;43.594;24.334;2023-03-25T04:08:03;100638.28;;;3.31;100.00
57600;BME280;43426;43.594;24.334;2023-03-25T04:10:43;100609.72;;;3.10;100.00
57600;BME280;43426;43.594;24.334;2023-03-25T04:13:12;100603.41;;;3.22;100.00
57600;BME280;43426;43.594;24.334;2023-03-25T04:15:39;100623.34;;;3.39;100.00
57600;BME280;43426;43.594;24.334;2023-03-25T04:18:05;100630.16;;;3.32;100.00
57600;BME280;43426;43.594;24.334;2023-03-25T04:20:32;100628.28;;;3.44;100.00
57600;BME280;43426;43.594;24.334;2023-03-25T04:22:59;100625.00;;;3.52;100.00
57600;BME280;43426;43.594;24.334;2023-03-25T04:25:25;100635.00;;;3.60;100.00
57600;BME280;43426;43.594;24.334;2023-03-25T04:27:51;100609.50;;;3.46;100.00
57600;BME280;43426;43.594;24.334;2023-03-25T04:30:18;100623.78;;;3.45;100.00
57600;BME280;43426;43.594;24.334;2023-03-25T04:32:44;100612.91;;;3.48;100.00
57600;BME280;43426;43.594;24.334;2023-03-25T04:35:15;100580.22;;;3.34;100.00
57600;BME280;43426;43.594;24.334;2023-03-25T04:37:41;100636.44;;;3.64;100.00
57600;BME280;43426;43.594;24.334;2023-03-25T04:40:13;100646.84;;;3.67;100.00
57600;BME280;43426;43.594;24.334;2023-03-25T04:42:40;100644.84;;;3.80;100.00
57600;BME280;43426;43.594;24.334;2023-03-25T04:45:06;100653.53;;;3.94;100.00
57600;BME280;43426;43.594;24.334;2023-03-25T04:47:32;100658.13;;;3.91;100.00
57600;BME280;43426;43.594;24.334;2023-03-25T04:49:57;100656.00;;;4.06;100.00
57600;BME280;43426;43.594;24.334;2023-03-25T04:52:23;100646.63;;;4.43;100.00
57600;BME280;43426;43.594;24.334;2023-03-25T04:54:48;100650.84;;;4.76;100.00
57600;BME280;43426;43.594;24.334;2023-03-25T04:57:14;100648.69;;;5.11;100.00
57600;BME280;43426;43.594;24.334;2023-03-25T04:59:39;100653.66;;;5.35;100.00
57600;BME280;43426;43.594;24.334;2023-03-25T05:02:05;100650.28;;;5.72;100.00
57600;BME280;43426;43.594;24.334;2023-03-25T05:04:32;100648.72;;;5.70;100.00
57600;BME280;43426;43.594;24.334;2023-03-25T05:06:57;100657.31;;;5.93;100.00
57600;BME280;43426;43.594;24.334;2023-03-25T05:09:23;100623.34;;;5.93;100.00
57600;BME280;43426;43.594;24.334;2023-03-25T05:11:50;100647.22;;;6.44;100.00
57600;BME280;43426;43.594;24.334;2023-03-25T05:14:18;100644.56;;;6.72;100.00
57600;BME280;43426;43.594;24.334;2023-03-25T05:16:44;100651.00;;;7.07;98.54
57600;BME280;43426;43.594;24.334;2023-03-25T05:19:10;100652.16;;;7.04;99.10
57600;BME280;43426;43.594;24.334;2023-03-25T05:21:37;100623.47;;;7.05;98.54
57600;BME280;43426;43.594;24.334;2023-03-25T05:24:03;100622.31;;;7.07;97.98
57600;BME280;43426;43.594;24.334;2023-03-25T05:26:29;100642.75;;;7.18;97.79
57600;BME280;43426;43.594;24.334;2023-03-25T05:29:02;100648.13;;;7.54;96.00
57600;BME280;43426;43.594;24.334;2023-03-25T05:31:28;100628.94;;;7.31;96.76
57600;BME280;43426;43.594;24.334;2023-03-25T05:33:54;100641.94;;;7.36;96.32
57600;BME280;43426;43.594;24.334;2023-03-25T05:36:20;100657.72;;;7.57;96.05
57600;BME280;43426;43.594;24.334;2023-03-25T05:38:45;100643.53;;;7.64;94.96
57600;BME280;43426;43.594;24.334;2023-03-25T05:41:13;100639.00;;;7.65;94.94
57600;BME280;43426;43.594;24.334;2023-03-25T05:43:43;100664.00;;;7.83;93.84
57600;BME280;43426;43.594;24.334;2023-03-25T05:46:18;100635.38;;;7.92;93.57
57600;BME280;43426;43.594;24.334;2023-03-25T05:48:44;100664.34;;;8.07;92.76
57600;BME280;43426;43.594;24.334;2023-03-25T05:51:17;100639.75;;;7.75;94.15
57600;BME280;43426;43.594;24.334;2023-03-25T05:53:46;100645.56;;;7.89;94.03
57600;BME280;43426;43.594;24.334;2023-03-25T05:56:15;100669.56;;;8.34;93.42
57600;BME280;43426;43.594;24.334;2023-03-25T05:58:46;100645.50;;;8.25;92.50
57600;BME280;43426;43.594;24.334;2023-03-25T06:01:12;100665.94;;;8.44;91.09
57600;BME280;43426;43.594;24.334;2023-03-25T06:03:39;100680.16;;;8.36;91.23
57600;BME280;43426;43.594;24.334;2023-03-25T06:06:06;100680.19;;;8.62;92.01
57600;BME280;43426;43.594;24.334;2023-03-25T06:08:41;100676.91;;;9.19;89.93
57600;BME280;43426;43.594;24.334;2023-03-25T06:11:08;100675.34;;;9.68;85.20
57600;BME280;43426;43.594;24.334;2023-03-25T06:13:34;100672.78;;;9.83;85.90
57600;BME280;43426;43.594;24.334;2023-03-25T06:16:07;100675.50;;;10.08;84.96
57600;BME280;43426;43.594;24.334;2023-03-25T06:18:34;100673.78;;;10.31;81.83
57600;BME280;43426;43.594;24.334;2023-03-25T06:21:01;100676.00;;;10.28;82.83
57600;BME280;43426;43.594;24.334;2023-03-25T06:23:27;100682.41;;;10.43;81.91
57600;BME280;43426;43.594;24.334;2023-03-25T06:25:53;100687.94;;;10.58;83.29
57600;BME280;43426;43.594;24.334;2023-03-25T06:28:19;100688.91;;;10.65;82.56
57600;BME280;43426;43.594;24.334;2023-03-25T06:30:45;100693.34;;;10.50;84.64
57600;BME280;43426;43.594;24.334;2023-03-25T06:33:11;100674.56;;;10.73;84.52
57600;BME280;43426;43.594;24.334;2023-03-25T06:35:39;100686.81;;;10.84;83.29
57600;BME280;43426;43.594;24.334;2023-03-25T06:38:05;100683.44;;;10.90;82.78
57600;BME280;43426;43.594;24.334;2023-03-25T06:40:31;100673.63;;;10.97;82.82
57600;BME280;43426;43.594;24.334;2023-03-25T06:42:56;100689.88;;;11.52;81.87
57600;BME280;43426;43.594;24.334;2023-03-25T06:45:22;100668.38;;;11.82;80.36
57600;BME280;43426;43.594;24.334;2023-03-25T06:47:47;100684.00;;;12.18;79.89
57600;BME280;43426;43.594;24.334;2023-03-25T06:50:13;100647.63;;;12.20;78.07
57600;BME280;43426;43.594;24.334;2023-03-25T06:52:38;100682.94;;;12.42;78.42
57600;BME280;43426;43.594;24.334;2023-03-25T06:55:04;100691.81;;;12.51;79.21
57600;BME280;43426;43.594;24.334;2023-03-25T06:57:29;100697.50;;;12.86;80.02
57600;BME280;43426;43.594;24.334;2023-03-25T06:59:55;100687.94;;;13.20;78.25
57600;BME280;43426;43.594;24.334;2023-03-25T07:02:20;100702.09;;;13.52;76.61
57600;BME280;43426;43.594;24.334;2023-03-25T07:04:46;100686.50;;;13.75;75.82
57600;BME280;43426;43.594;24.334;2023-03-25T07:07:11;100671.22;;;14.18;75.07
57600;BME280;43426;43.594;24.334;2023-03-25T07:09:37;100672.06;;;14.75;70.64
57600;BME280;43426;43.594;24.334;2023-03-25T07:12:02;100682.19;;;14.94;72.09
57600;BME280;43426;43.594;24.334;2023-03-25T07:14:27;100653.19;;;15.08;70.76
57600;BME280;43426;43.594;24.334;2023-03-25T07:16:53;100652.00;;;14.76;71.15
57600;BME280;43426;43.594;24.334;2023-03-25T07:19:18;100663.63;;;14.63;71.53
57600;BME280;43426;43.594;24.334;2023-03-25T07:21:43;100651.44;;;14.87;71.01
57600;BME280;43426;43.594;24.334;2023-03-25T07:24:09;100660.84;;;15.40;71.01
57600;BME280;43426;43.594;24.334;2023-03-25T07:26:34;100662.75;;;15.53;70.51
57600;BME280;43426;43.594;24.334;2023-03-25T07:29:00;100664.91;;;16.04;68.38
57600;BME280;43426;43.594;24.334;2023-03-25T07:31:25;100662.16;;;16.58;68.17
57600;BME280;43426;43.594;24.334;2023-03-25T07:33:50;100664.59;;;16.79;67.05
57600;BME280;43426;43.594;24.334;2023-03-25T07:36:17;100671.28;;;16.97;66.00
57600;BME280;43426;43.594;24.334;2023-03-25T07:38:42;100627.88;;;17.02;64.16
57600;BME280;43426;43.594;24.334;2023-03-25T07:41:09;100675.88;;;17.48;61.49
57600;BME280;43426;43.594;24.334;2023-03-25T07:43:35;100648.06;;;17.65;62.57
57600;BME280;43426;43.594;24.334;2023-03-25T07:46:00;100659.56;;;18.06;61.50
57600;BME280;43426;43.594;24.334;2023-03-25T07:48:25;100663.19;;;17.99;61.68
57600;BME280;43426;43.594;24.334;2023-03-25T07:50:52;100656.44;;;18.02;60.35
57600;BME280;43426;43.594;24.334;2023-03-25T07:53:17;100666.41;;;17.51;60.60
57600;BME280;43426;43.594;24.334;2023-03-25T07:55:43;100674.34;;;17.21;62.40
57600;BME280;43426;43.594;24.334;2023-03-25T07:58:10;100670.56;;;17.22;63.00
57600;BME280;43426;43.594;24.334;2023-03-25T08:00:35;100680.72;;;17.01;64.16
57600;BME280;43426;43.594;24.334;2023-03-25T08:03:01;100678.03;;;16.81;64.20
57600;BME280;43426;43.594;24.334;2023-03-25T08:05:26;100665.66;;;16.85;65.60
57600;BME280;43426;43.594;24.334;2023-03-25T08:07:52;100656.91;;;17.28;65.85
57600;BME280;43426;43.594;24.334;2023-03-25T08:10:17;100666.47;;;17.76;63.00
57600;BME280;43426;43.594;24.334;2023-03-25T08:12:43;100667.56;;;18.26;61.90
57600;BME280;43426;43.594;24.334;2023-03-25T08:15:09;100656.25;;;18.66;60.94
57600;BME280;43426;43.594;24.334;2023-03-25T08:17:36;100658.63;;;18.99;57.24
57600;BME280;43426;43.594;24.334;2023-03-25T08:20:02;100656.88;;;18.86;57.95
57600;BME280;43426;43.594;24.334;2023-03-25T08:22:30;100648.81;;;19.10;59.99
57600;BME280;43426;43.594;24.334;2023-03-25T08:24:55;100657.22;;;19.57;57.46
57600;BME280;43426;43.594;24.334;2023-03-25T08:27:21;100640.69;;;19.83;57.40
57600;BME280;43426;43.594;24.334;2023-03-25T08:29:46;100643.19;;;19.84;57.17
57600;BME280;43426;43.594;24.334;2023-03-25T08:32:23;100649.63;;;20.14;55.84
57600;BME280;43426;43.594;24.334;2023-03-25T08:34:49;100645.47;;;20.35;52.76
57600;BME280;43426;43.594;24.334;2023-03-25T08:37:14;100618.88;;;20.47;55.15
57600;BME280;43426;43.594;24.334;2023-03-25T08:39:41;100616.38;;;20.81;53.11
57600;BME280;43426;43.594;24.334;2023-03-25T08:42:10;100634.69;;;20.92;53.85
57600;BME280;43426;43.594;24.334;2023-03-25T08:44:35;100633.38;;;20.95;53.00
57600;BME280;43426;43.594;24.334;2023-03-25T08:47:01;100633.28;;;21.19;51.80
57600;BME280;43426;43.594;24.334;2023-03-25T08:49:26;100646.72;;;21.61;51.68
57600;BME280;43426;43.594;24.334;2023-03-25T08:51:52;100621.69;;;21.91;50.47
57600;BME280;43426;43.594;24.334;2023-03-25T08:54:17;100604.38;;;21.57;48.67
57600;BME280;43426;43.594;24.334;2023-03-25T08:56:43;100623.44;;;21.64;51.59
57600;BME280;43426;43.594;24.334;2023-03-25T08:59:10;100623.22;;;21.99;52.02
57600;BME280;43426;43.594;24.334;2023-03-25T09:01:37;100606.63;;;22.11;50.32
57600;BME280;43426;43.594;24.334;2023-03-25T09:04:02;100622.50;;;22.26;49.14
57600;BME280;43426;43.594;24.334;2023-03-25T09:06:29;100633.59;;;22.31;48.79
57600;BME280;43426;43.594;24.334;2023-03-25T09:08:54;100622.78;;;22.24;47.83
57600;BME280;43426;43.594;24.334;2023-03-25T09:11:49;100618.03;;;22.20;50.04
57600;BME280;43426;43.594;24.334;2023-03-25T09:14:25;100619.94;;;22.75;49.77
57600;BME280;43426;43.594;24.334;2023-03-25T09:16:50;100602.78;;;22.90;47.42
57600;BME280;43426;43.594;24.334;2023-03-25T09:19:16;100571.63;;;22.85;45.67
57600;BME280;43426;43.594;24.334;2023-03-25T09:21:41;100603.78;;;23.28;45.69
57600;BME280;43426;43.594;24.334;2023-03-25T09:24:07;100596.56;;;23.22;48.58
57600;BME280;43426;43.594;24.334;2023-03-25T09:26:33;100603.22;;;23.26;47.47
57600;BME280;43426;43.594;24.334;2023-03-25T09:28:58;100594.91;;;23.49;46.12
57600;BME280;43426;43.594;24.334;2023-03-25T09:31:25;100569.69;;;23.67;44.93
57600;BME280;43426;43.594;24.334;2023-03-25T09:33:51;100563.44;;;24.09;46.23
57600;BME280;43426;43.594;24.334;2023-03-25T09:36:16;100578.00;;;24.05;43.52
57600;BME280;43426;43.594;24.334;2023-03-25T09:38:42;100577.22;;;24.14;44.99
57600;BME280;43426;43.594;24.334;2023-03-25T09:41:22;100575.59;;;24.19;44.17
57600;BME280;43426;43.594;24.334;2023-03-25T09:46:22;100576.72;;;24.23;44.31
57600;BME280;43426;43.594;24.334;2023-03-25T09:48:50;100576.31;;;24.41;42.23
57600;BME280;43426;43.594;24.334;2023-03-25T09:51:36;100564.09;;;24.80;41.76
57600;BME280;43426;43.594;24.334;2023-03-25T09:56:47;100574.91;;;25.12;39.94
57600;BME280;43426;43.594;24.334;2023-03-25T10:12:11;100559.50;;;23.35;35.87
57600;BME280;43426;43.594;24.334;2023-03-25T10:17:43;100525.06;;;23.33;33.33
57600;BME280;43426;43.594;24.334;2023-03-25T10:25:43;100535.78;;;23.29;33.67
57600;BME280;43426;43.594;24.334;2023-03-25T10:28:25;100551.25;;;23.35;34.75
57600;BME280;43426;43.594;24.334;2023-03-25T10:30:52;100553.38;;;23.55;35.68
57600;BME280;43426;43.594;24.334;2023-03-25T10:35:57;100528.91;;;24.02;34.66
57600;BME280;43426;43.594;24.334;2023-03-25T10:38:24;100532.63;;;23.85;36.34
57600;BME280;43426;43.594;24.334;2023-03-25T10:40:54;100532.88;;;23.78;37.58
57600;BME280;43426;43.594;24.334;2023-03-25T10:43:27;100525.13;;;23.75;36.01
57600;BME280;43426;43.594;24.334;2023-03-25T10:46:28;100527.56;;;23.67;37.14
57600;BME280;43426;43.594;24.334;2023-03-25T10:48:55;100511.84;;;23.67;37.56
57600;BME280;43426;43.594;24.334;2023-03-25T10:51:26;100523.19;;;23.71;37.54
57600;BME280;43426;43.594;24.334;2023-03-25T10:53:52;100524.59;;;23.78;38.99
57600;BME280;43426;43.594;24.334;2023-03-25T10:56:21;100522.00;;;23.61;37.00
57600;BME280;43426;43.594;24.334;2023-03-25T10:58:51;100509.00;;;23.52;38.02
57600;BME280;43426;43.594;24.334;2023-03-25T11:03:58;100512.69;;;23.68;33.42
57600;BME280;43426;43.594;24.334;2023-03-25T11:06:27;100521.19;;;23.28;33.27
57600;BME280;43426;43.594;24.334;2023-03-25T11:11:33;100511.84;;;23.29;35.50
57600;BME280;43426;43.594;24.334;2023-03-25T11:14:00;100486.78;;;23.31;36.50
57600;BME280;43426;43.594;24.334;2023-03-25T11:16:31;100478.59;;;23.09;35.12
57600;BME280;43426;43.594;24.334;2023-03-25T11:19:00;100515.59;;;23.18;34.90
57600;BME280;43426;43.594;24.334;2023-03-25T11:21:30;100487.72;;;22.87;35.54
57600;BME280;43426;43.594;24.334;2023-03-25T11:23:57;100505.88;;;22.83;36.04
57600;BME280;43426;43.594;24.334;2023-03-25T11:26:27;100509.38;;;22.78;37.64
57600;BME280;43426;43.594;24.334;2023-03-25T11:28:59;100492.09;;;23.10;37.54
57600;BME280;43426;43.594;24.334;2023-03-25T11:31:27;100496.47;;;23.71;37.13
57600;BME280;43426;43.594;24.334;2023-03-25T11:36:37;100482.94;;;24.86;34.60
57600;BME280;43426;43.594;24.334;2023-03-25T11:39:26;100477.72;;;25.15;32.27
57600;BME280;43426;43.594;24.334;2023-03-25T11:41:53;100474.91;;;24.64;31.49
57600;BME280;43426;43.594;24.334;2023-03-25T11:44:29;100452.88;;;24.06;32.20
57600;BME280;43426;43.594;24.334;2023-03-25T11:46:57;100471.63;;;24.09;33.24
57600;BME280;43426;43.594;24.334;2023-03-25T11:49:25;100463.59;;;23.97;32.61
57600;BME280;43426;43.594;24.334;2023-03-25T11:52:04;100457.22;;;23.91;35.05
57600;BME280;43426;43.594;24.334;2023-03-25T11:54:33;100444.25;;;23.92;34.24
57600;BME280;43426;43.594;24.334;2023-03-25T11:57:03;100453.97;;;24.05;33.44
57600;BME280;43426;43.594;24.334;2023-03-25T11:59:43;100448.72;;;23.55;33.33
57600;BME280;43426;43.594;24.334;2023-03-25T12:02:29;100454.81;;;23.25;35.97
57600;BME280;43426;43.594;24.334;2023-03-25T12:08:00;100450.59;;;22.85;36.74
57600;BME280;43426;43.594;24.334;2023-03-25T12:13:10;100403.78;;;22.08;36.82
57600;BME280;43426;43.594;24.334;2023-03-25T12:23:51;100432.16;;;21.91;39.22
57600;BME280;43426;43.594;24.334;2023-03-25T12:29:12;100431.56;;;21.67;38.29
57600;BME280;43426;43.594;24.334;2023-03-25T12:37:10;100426.00;;;21.84;40.01
57600;BME280;43426;43.594;24.334;2023-03-25T12:51:12;100438.22;;;21.71;36.82
57600;BME280;43426;43.594;24.334;2023-03-25T13:05:02;100426.25;;;21.60;37.24
57600;BME280;43426;43.594;24.334;2023-03-25T13:07:43;100432.03;;;21.47;36.41
57600;BME280;43426;43.594;24.334;2023-03-25T13:10:19;100425.06;;;21.22;37.08
57600;BME280;43426;43.594;24.334;2023-03-25T13:15:25;100403.38;;;21.04;38.84
57600;BME280;43426;43.594;24.334;2023-03-25T13:18:02;100411.69;;;21.26;39.78
57600;BME280;43426;43.594;24.334;2023-03-25T13:20:35;100396.81;;;21.05;41.31
57600;BME280;43426;43.594;24.334;2023-03-25T13:23:04;100409.78;;;21.09;40.94
57600;BME280;43426;43.594;24.334;2023-03-25T13:25:43;100397.50;;;20.95;39.58
57600;BME280;43426;43.594;24.334;2023-03-25T13:28:17;100405.97;;;20.94;40.99
57600;BME280;43426;43.594;24.334;2023-03-25T13:30:48;100385.09;;;20.75;40.74
57600;BME280;43426;43.594;24.334;2023-03-25T13:33:37;100405.63;;;20.73;40.09
57600;BME280;43426;43.594;24.334;2023-03-25T13:38:53;100406.41;;;20.45;41.60
57600;BME280;43426;43.594;24.334;2023-03-25T13:44:25;100378.59;;;20.36;41.86
57600;BME280;43426;43.594;24.334;2023-03-25T13:47:03;100385.59;;;20.44;41.80
57600;BME280;43426;43.594;24.334;2023-03-25T13:49:35;100364.78;;;20.31;42.32
57600;BME280;43426;43.594;24.334;2023-03-25T13:52:05;100359.56;;;20.29;42.40
57600;BME280;43426;43.594;24.334;2023-03-25T14:05:46;100371.13;;;20.77;42.12
57600;BME280;43426;43.594;24.334;2023-03-25T14:08:35;100357.91;;;20.74;43.99
57600;BME280;43426;43.594;24.334;2023-03-25T14:11:23;100361.16;;;20.71;44.34
57600;BME280;43426;43.594;24.334;2023-03-25T14:14:05;100356.44;;;20.54;43.90
57600;BME280;43426;43.594;24.334;2023-03-25T14:16:45;100363.16;;;20.47;44.93
57600;BME280;43426;43.594;24.334;2023-03-25T14:19:14;100352.16;;;20.30;46.26
57600;BME280;43426;43.594;24.334;2023-03-25T14:21:46;100335.69;;;20.13;47.28
57600;BME280;43426;43.594;24.334;2023-03-25T14:26:46;100331.97;;;19.90;45.32
57600;BME280;43426;43.594;24.334;2023-03-25T14:29:35;100346.53;;;20.07;46.17
57600;BME280;43426;43.594;24.334;2023-03-25T14:32:59;100328.38;;;20.18;45.22
57600;BME280;43426;43.594;24.334;2023-03-25T14:49:08;100329.03;;;20.08;45.66
57600;BME280;43426;43.594;24.334;2023-03-25T14:57:12;100356.03;;;19.64;46.77
57600;BME280;43426;43.594;24.334;2023-03-25T14:59:43;100360.56;;;19.59;47.15
57600;BME280;43426;43.594;24.334;2023-03-25T15:02:28;100358.22;;;19.38;48.32
57600;BME280;43426;43.594;24.334;2023-03-25T15:05:01;100347.50;;;19.25;48.80
57600;BME280;43426;43.594;24.334;2023-03-25T15:13:08;100352.03;;;19.08;50.98
57600;BME280;43426;43.594;24.334;2023-03-25T15:18:11;100317.16;;;18.79;50.98
57600;BME280;43426;43.594;24.334;2023-03-25T15:20:36;100322.16;;;18.82;50.26
57600;BME280;43426;43.594;24.334;2023-03-25T15:25:49;100330.69;;;18.74;49.96
57600;BME280;43426;43.594;24.334;2023-03-25T15:31:35;100328.91;;;18.80;49.26
57600;BME280;43426;43.594;24.334;2023-03-25T15:36:43;100296.19;;;18.37;48.84
57600;BME280;43426;43.594;24.334;2023-03-25T15:47:23;100314.59;;;18.42;48.97
57600;BME280;43426;43.594;24.334;2023-03-25T15:53:01;100317.47;;;18.47;51.99
57600;BME280;43426;43.594;24.334;2023-03-25T15:55:36;100295.31;;;18.37;53.35
57600;BME280;43426;43.594;24.334;2023-03-25T15:58:10;100318.53;;;18.46;54.64
57600;BME280;43426;43.594;24.334;2023-03-25T16:00:44;100301.75;;;18.31;54.19
57600;BME280;43426;43.594;24.334;2023-03-25T16:03:21;100318.28;;;18.36;54.64
57600;BME280;43426;43.594;24.334;2023-03-25T16:05:52;100322.25;;;18.21;55.11